sensor_id;sensor_type;location;lat;lon;timestamp;temperature;humidity
148;DHT22;142;50.652;12.216;2022-10-20T00:01:11;5.20;63.00
148;DHT22;142;50.652;12.216;2022-10-20T00:03:40;5.20;63.00
148;DHT22;142;50.652;12.216;2022-10-20T00:06:09;5.30;63.00
148;DHT22;142;50.652;12.216;2022-10-20T00:08:36;5.30;63.10
148;DHT22;142;50.652;12.216;2022-10-20T00:11:04;5.30;63.30
148;DHT22;142;50.652;12.216;2022-10-20T00:13:31;5.30;63.10
148;DHT22;142;50.652;12.216;2022-10-20T00:15:59;5.40;63.20
148;DHT22;142;50.652;12.216;2022-10-20T00:18:27;5.40;63.20
148;DHT22;142;50.652;12.216;2022-10-20T00:20:55;5.40;63.20
148;DHT22;142;50.652;12.216;2022-10-20T00:23:23;5.40;63.10
148;DHT22;142;50.652;12.216;2022-10-20T00:26:00;5.40;63.30
148;DHT22;142;50.652;12.216;2022-10-20T00:28:27;5.50;63.60
148;DHT22;142;50.652;12.216;2022-10-20T00:30:55;5.50;63.90
148;DHT22;142;50.652;12.216;2022-10-20T00:33:22;5.50;64.00
148;DHT22;142;50.652;12.216;2022-10-20T00:35:49;5.50;64.10
148;DHT22;142;50.652;12.216;2022-10-20T00:38:17;5.40;64.10
148;DHT22;142;50.652;12.216;2022-10-20T00:40:45;5.50;64.40
148;DHT22;142;50.652;12.216;2022-10-20T00:43:13;5.50;64.50
148;DHT22;142;50.652;12.216;2022-10-20T00:45:41;5.40;64.50
148;DHT22;142;50.652;12.216;2022-10-20T00:48:14;5.30;64.50
148;DHT22;142;50.652;12.216;2022-10-20T00:50:47;5.20;64.60
148;DHT22;142;50.652;12.216;2022-10-20T00:53:16;5.10;64.70
148;DHT22;142;50.652;12.216;2022-10-20T00:55:48;5.10;64.80
148;DHT22;142;50.652;12.216;2022-10-20T00:58:16;5.00;65.10
148;DHT22;142;50.652;12.216;2022-10-20T01:00:45;5.00;65.20
148;DHT22;142;50.652;12.216;2022-10-20T01:03:18;4.90;65.00
148;DHT22;142;50.652;12.216;2022-10-20T01:05:46;4.80;64.90
148;DHT22;142;50.652;12.216;2022-10-20T01:08:14;4.70;65.40
148;DHT22;142;50.652;12.216;2022-10-20T01:10:49;4.70;65.50
148;DHT22;142;50.652;12.216;2022-10-20T01:13:24;4.70;65.80
148;DHT22;142;50.652;12.216;2022-10-20T01:15:58;4.70;65.90
148;DHT22;142;50.652;12.216;2022-10-20T01:18:32;4.60;65.90
148;DHT22;142;50.652;12.216;2022-10-20T01:21:27;4.60;66.00
148;DHT22;142;50.652;12.216;2022-10-20T01:24:17;4.60;66.30
148;DHT22;142;50.652;12.216;2022-10-20T01:27:15;4.70;66.30
148;DHT22;142;50.652;12.216;2022-10-20T01:29:49;4.60;66.30
148;DHT22;142;50.652;12.216;2022-10-20T01:32:21;4.50;66.00
148;DHT22;142;50.652;12.216;2022-10-20T01:34:54;4.50;66.30
148;DHT22;142;50.652;12.216;2022-10-20T01:37:28;4.60;66.40
148;DHT22;142;50.652;12.216;2022-10-20T01:40:00;4.50;66.30
148;DHT22;142;50.652;12.216;2022-10-20T01:42:29;4.50;66.40
148;DHT22;142;50.652;12.216;2022-10-20T01:44:59;4.50;66.40
148;DHT22;142;50.652;12.216;2022-10-20T01:47:28;4.50;66.50
148;DHT22;142;50.652;12.216;2022-10-20T01:49:57;4.60;66.70
148;DHT22;142;50.652;12.216;2022-10-20T01:52:26;4.60;66.50
148;DHT22;142;50.652;12.216;2022-10-20T01:54:54;4.60;66.40
148;DHT22;142;50.652;12.216;2022-10-20T01:57:35;4.50;66.10
148;DHT22;142;50.652;12.216;2022-10-20T02:00:07;4.50;66.20
148;DHT22;142;50.652;12.216;2022-10-20T02:05:51;4.30;66.10
148;DHT22;142;50.652;12.216;2022-10-20T02:08:24;4.30;66.20
148;DHT22;142;50.652;12.216;2022-10-20T02:10:56;4.30;66.10
148;DHT22;142;50.652;12.216;2022-10-20T02:13:29;4.20;66.10
148;DHT22;142;50.652;12.216;2022-10-20T02:15:59;4.20;66.60
148;DHT22;142;50.652;12.216;2022-10-20T02:18:30;4.20;66.70
148;DHT22;142;50.652;12.216;2022-10-20T02:21:01;4.20;66.60
148;DHT22;142;50.652;12.216;2022-10-20T02:23:34;4.20;66.70
148;DHT22;142;50.652;12.216;2022-10-20T02:26:03;4.20;66.70
148;DHT22;142;50.652;12.216;2022-10-20T02:28:35;4.20;66.70
148;DHT22;142;50.652;12.216;2022-10-20T02:31:04;4.30;66.70
148;DHT22;142;50.652;12.216;2022-10-20T02:33:31;4.20;66.60
148;DHT22;142;50.652;12.216;2022-10-20T02:35:59;4.20;66.70
148;DHT22;142;50.652;12.216;2022-10-20T02:38:26;4.20;66.70
148;DHT22;142;50.652;12.216;2022-10-20T02:40:53;4.00;66.40
148;DHT22;142;50.652;12.216;2022-10-20T02:43:20;4.00;66.60
148;DHT22;142;50.652;12.216;2022-10-20T02:45:49;4.00;66.70
148;DHT22;142;50.652;12.216;2022-10-20T02:48:16;3.90;66.70
148;DHT22;142;50.652;12.216;2022-10-20T02:50:43;3.90;66.70
148;DHT22;142;50.652;12.216;2022-10-20T02:53:10;3.90;66.70
148;DHT22;142;50.652;12.216;2022-10-20T02:55:37;3.90;66.90
148;DHT22;142;50.652;12.216;2022-10-20T02:58:04;3.90;67.00
148;DHT22;142;50.652;12.216;2022-10-20T03:00:31;3.90;67.00
148;DHT22;142;50.652;12.216;2022-10-20T03:03:00;3.90;66.80
148;DHT22;142;50.652;12.216;2022-10-20T03:05:27;3.90;66.90
148;DHT22;142;50.652;12.216;2022-10-20T03:07:54;3.80;66.80
148;DHT22;142;50.652;12.216;2022-10-20T03:10:22;3.80;67.00
148;DHT22;142;50.652;12.216;2022-10-20T03:12:49;3.90;67.20
148;DHT22;142;50.652;12.216;2022-10-20T03:15:16;4.00;67.30
148;DHT22;142;50.652;12.216;2022-10-20T03:17:43;4.00;67.20
148;DHT22;142;50.652;12.216;2022-10-20T03:20:12;3.90;67.10
148;DHT22;142;50.652;12.216;2022-10-20T03:22:39;3.90;67.10
148;DHT22;142;50.652;12.216;2022-10-20T03:25:06;3.90;67.10
148;DHT22;142;50.652;12.216;2022-10-20T03:27:34;3.80;67.00
148;DHT22;142;50.652;12.216;2022-10-20T03:30:02;3.80;67.00
148;DHT22;142;50.652;12.216;2022-10-20T03:32:29;3.60;67.10
148;DHT22;142;50.652;12.216;2022-10-20T03:34:56;3.50;67.10
148;DHT22;142;50.652;12.216;2022-10-20T03:37:24;3.50;67.20
148;DHT22;142;50.652;12.216;2022-10-20T03:39:51;3.40;67.20
148;DHT22;142;50.652;12.216;2022-10-20T03:42:18;3.40;67.30
148;DHT22;142;50.652;12.216;2022-10-20T03:44:46;3.40;67.40
148;DHT22;142;50.652;12.216;2022-10-20T03:47:13;3.40;67.40
148;DHT22;142;50.652;12.216;2022-10-20T03:49:40;3.30;67.30
148;DHT22;142;50.652;12.216;2022-10-20T03:52:06;3.30;67.50
148;DHT22;142;50.652;12.216;2022-10-20T03:54:35;3.40;67.70
148;DHT22;142;50.652;12.216;2022-10-20T03:57:03;3.40;67.60
148;DHT22;142;50.652;12.216;2022-10-20T03:59:30;3.50;67.60
148;DHT22;142;50.652;12.216;2022-10-20T04:01:57;3.40;67.60
148;DHT22;142;50.652;12.216;2022-10-20T04:04:24;3.40;67.60
148;DHT22;142;50.652;12.216;2022-10-20T04:06:52;3.50;67.70
148;DHT22;142;50.652;12.216;2022-10-20T04:09:19;3.40;67.60
148;DHT22;142;50.652;12.216;2022-10-20T04:11:47;3.40;67.60
148;DHT22;142;50.652;12.216;2022-10-20T04:14:14;3.40;67.50
148;DHT22;142;50.652;12.216;2022-10-20T04:16:41;3.50;67.70
148;DHT22;142;50.652;12.216;2022-10-20T04:19:09;3.50;67.70
148;DHT22;142;50.652;12.216;2022-10-20T04:21:35;3.50;67.70
148;DHT22;142;50.652;12.216;2022-10-20T04:24:03;3.40;67.50
148;DHT22;142;50.652;12.216;2022-10-20T04:26:31;3.40;67.50
148;DHT22;142;50.652;12.216;2022-10-20T04:29:00;3.40;67.50
148;DHT22;142;50.652;12.216;2022-10-20T04:31:27;3.40;67.60
148;DHT22;142;50.652;12.216;2022-10-20T04:33:54;3.50;67.70
148;DHT22;142;50.652;12.216;2022-10-20T04:36:21;3.50;67.60
148;DHT22;142;50.652;12.216;2022-10-20T04:38:48;3.60;67.70
148;DHT22;142;50.652;12.216;2022-10-20T04:41:15;3.60;67.60
148;DHT22;142;50.652;12.216;2022-10-20T04:43:43;3.60;67.60
148;DHT22;142;50.652;12.216;2022-10-20T04:46:17;3.50;67.50
148;DHT22;142;50.652;12.216;2022-10-20T04:48:44;3.50;67.60
148;DHT22;142;50.652;12.216;2022-10-20T04:51:13;3.40;67.40
148;DHT22;142;50.652;12.216;2022-10-20T04:53:41;3.40;67.40
148;DHT22;142;50.652;12.216;2022-10-20T04:56:11;3.40;67.40
148;DHT22;142;50.652;12.216;2022-10-20T04:58:39;3.30;67.20
148;DHT22;142;50.652;12.216;2022-10-20T05:01:08;3.10;67.10
148;DHT22;142;50.652;12.216;2022-10-20T05:03:37;3.00;67.10
148;DHT22;142;50.652;12.216;2022-10-20T05:06:09;2.90;66.80
148;DHT22;142;50.652;12.216;2022-10-20T05:08:36;2.90;67.00
148;DHT22;142;50.652;12.216;2022-10-20T05:11:03;2.80;67.10
148;DHT22;142;50.652;12.216;2022-10-20T05:13:31;2.90;67.20
148;DHT22;142;50.652;12.216;2022-10-20T05:15:58;2.80;67.20
148;DHT22;142;50.652;12.216;2022-10-20T05:18:25;2.80;67.20
148;DHT22;142;50.652;12.216;2022-10-20T05:20:55;2.80;67.30
148;DHT22;142;50.652;12.216;2022-10-20T05:23:23;2.80;67.20
148;DHT22;142;50.652;12.216;2022-10-20T05:25:50;2.80;67.30
148;DHT22;142;50.652;12.216;2022-10-20T05:28:20;2.80;67.40
148;DHT22;142;50.652;12.216;2022-10-20T05:30:46;2.80;67.40
148;DHT22;142;50.652;12.216;2022-10-20T05:33:14;2.70;67.40
148;DHT22;142;50.652;12.216;2022-10-20T05:35:41;2.60;67.40
148;DHT22;142;50.652;12.216;2022-10-20T05:38:09;2.60;67.50
148;DHT22;142;50.652;12.216;2022-10-20T05:40:36;2.60;67.60
148;DHT22;142;50.652;12.216;2022-10-20T05:43:03;2.70;67.60
148;DHT22;142;50.652;12.216;2022-10-20T05:45:30;2.70;67.70
148;DHT22;142;50.652;12.216;2022-10-20T05:47:57;2.70;67.80
148;DHT22;142;50.652;12.216;2022-10-20T05:50:25;2.70;67.70
148;DHT22;142;50.652;12.216;2022-10-20T05:52:51;2.80;67.70
148;DHT22;142;50.652;12.216;2022-10-20T05:55:20;2.80;67.70
148;DHT22;142;50.652;12.216;2022-10-20T05:57:48;2.90;67.70
148;DHT22;142;50.652;12.216;2022-10-20T06:00:15;2.80;67.50
148;DHT22;142;50.652;12.216;2022-10-20T06:02:44;2.80;67.40
148;DHT22;142;50.652;12.216;2022-10-20T06:05:11;2.80;67.30
148;DHT22;142;50.652;12.216;2022-10-20T06:07:38;2.70;67.20
148;DHT22;142;50.652;12.216;2022-10-20T06:10:05;2.70;67.00
148;DHT22;142;50.652;12.216;2022-10-20T06:12:37;2.70;66.80
148;DHT22;142;50.652;12.216;2022-10-20T06:15:05;2.70;66.70
148;DHT22;142;50.652;12.216;2022-10-20T06:17:32;2.80;66.60
148;DHT22;142;50.652;12.216;2022-10-20T06:19:59;2.80;66.40
148;DHT22;142;50.652;12.216;2022-10-20T06:22:26;2.80;66.30
148;DHT22;142;50.652;12.216;2022-10-20T06:24:53;2.80;66.10
148;DHT22;142;50.652;12.216;2022-10-20T06:27:20;2.80;65.70
148;DHT22;142;50.652;12.216;2022-10-20T06:29:48;2.90;65.70
148;DHT22;142;50.652;12.216;2022-10-20T06:32:17;2.90;65.60
148;DHT22;142;50.652;12.216;2022-10-20T06:34:43;3.00;65.50
148;DHT22;142;50.652;12.216;2022-10-20T06:37:11;3.00;65.30
148;DHT22;142;50.652;12.216;2022-10-20T06:39:38;3.10;65.10
148;DHT22;142;50.652;12.216;2022-10-20T06:42:05;3.10;64.80
148;DHT22;142;50.652;12.216;2022-10-20T06:44:32;3.20;64.70
148;DHT22;142;50.652;12.216;2022-10-20T06:47:01;3.20;64.70
148;DHT22;142;50.652;12.216;2022-10-20T06:49:31;3.30;64.40
148;DHT22;142;50.652;12.216;2022-10-20T06:51:59;3.40;64.20
148;DHT22;142;50.652;12.216;2022-10-20T06:54:26;3.50;64.10
148;DHT22;142;50.652;12.216;2022-10-20T06:56:53;3.50;64.00
148;DHT22;142;50.652;12.216;2022-10-20T06:59:20;3.60;64.00
148;DHT22;142;50.652;12.216;2022-10-20T07:01:47;3.80;63.90
148;DHT22;142;50.652;12.216;2022-10-20T07:04:18;3.80;63.80
148;DHT22;142;50.652;12.216;2022-10-20T07:06:46;3.90;63.70
148;DHT22;142;50.652;12.216;2022-10-20T07:09:15;4.00;63.60
148;DHT22;142;50.652;12.216;2022-10-20T07:11:43;4.00;63.50
148;DHT22;142;50.652;12.216;2022-10-20T07:14:11;4.00;63.40
148;DHT22;142;50.652;12.216;2022-10-20T07:16:39;4.20;63.30
148;DHT22;142;50.652;12.216;2022-10-20T07:19:06;4.30;63.50
148;DHT22;142;50.652;12.216;2022-10-20T07:21:35;4.40;63.40
148;DHT22;142;50.652;12.216;2022-10-20T07:24:04;4.50;63.40
148;DHT22;142;50.652;12.216;2022-10-20T07:26:33;4.60;63.40
148;DHT22;142;50.652;12.216;2022-10-20T07:29:01;4.70;63.20
148;DHT22;142;50.652;12.216;2022-10-20T07:31:30;4.70;62.90
148;DHT22;142;50.652;12.216;2022-10-20T07:33:58;4.80;62.80
148;DHT22;142;50.652;12.216;2022-10-20T07:36:27;4.80;62.80
148;DHT22;142;50.652;12.216;2022-10-20T07:38:58;4.90;62.70
148;DHT22;142;50.652;12.216;2022-10-20T07:41:26;5.00;63.00
148;DHT22;142;50.652;12.216;2022-10-20T07:43:54;5.20;63.00
148;DHT22;142;50.652;12.216;2022-10-20T07:46:22;5.30;63.10
148;DHT22;142;50.652;12.216;2022-10-20T07:48:49;5.40;62.90
148;DHT22;142;50.652;12.216;2022-10-20T07:51:23;5.50;62.80
148;DHT22;142;50.652;12.216;2022-10-20T07:53:52;5.50;62.40
148;DHT22;142;50.652;12.216;2022-10-20T07:56:21;5.60;62.30
148;DHT22;142;50.652;12.216;2022-10-20T07:58:49;5.60;62.20
148;DHT22;142;50.652;12.216;2022-10-20T08:01:16;5.60;62.40
148;DHT22;142;50.652;12.216;2022-10-20T08:03:44;5.80;62.50
148;DHT22;142;50.652;12.216;2022-10-20T08:06:10;5.90;62.60
148;DHT22;142;50.652;12.216;2022-10-20T08:08:38;6.00;62.60
148;DHT22;142;50.652;12.216;2022-10-20T08:11:05;6.20;62.60
148;DHT22;142;50.652;12.216;2022-10-20T08:13:34;6.30;62.50
148;DHT22;142;50.652;12.216;2022-10-20T08:16:04;6.40;62.50
148;DHT22;142;50.652;12.216;2022-10-20T08:18:31;6.60;62.40
148;DHT22;142;50.652;12.216;2022-10-20T08:21:09;6.70;61.90
148;DHT22;142;50.652;12.216;2022-10-20T08:23:39;6.80;62.10
148;DHT22;142;50.652;12.216;2022-10-20T08:26:06;7.00;61.70
148;DHT22;142;50.652;12.216;2022-10-20T08:28:35;7.20;61.80
148;DHT22;142;50.652;12.216;2022-10-20T08:31:02;7.30;61.90
148;DHT22;142;50.652;12.216;2022-10-20T08:33:30;7.50;61.70
148;DHT22;142;50.652;12.216;2022-10-20T08:36:01;7.60;61.60
148;DHT22;142;50.652;12.216;2022-10-20T08:38:28;7.90;61.80
148;DHT22;142;50.652;12.216;2022-10-20T08:40:57;8.10;61.70
148;DHT22;142;50.652;12.216;2022-10-20T08:43:24;8.30;61.20
148;DHT22;142;50.652;12.216;2022-10-20T08:45:53;8.50;61.10
148;DHT22;142;50.652;12.216;2022-10-20T08:48:22;8.60;61.10
148;DHT22;142;50.652;12.216;2022-10-20T08:50:51;8.80;61.00
148;DHT22;142;50.652;12.216;2022-10-20T08:53:21;9.00;60.90
148;DHT22;142;50.652;12.216;2022-10-20T08:55:48;9.20;60.40
148;DHT22;142;50.652;12.216;2022-10-20T08:58:17;9.30;59.90
148;DHT22;142;50.652;12.216;2022-10-20T09:00:46;9.50;60.10
148;DHT22;142;50.652;12.216;2022-10-20T09:03:16;9.60;59.90
148;DHT22;142;50.652;12.216;2022-10-20T09:05:45;9.80;59.80
148;DHT22;142;50.652;12.216;2022-10-20T09:08:14;10.00;59.70
148;DHT22;142;50.652;12.216;2022-10-20T09:10:44;10.20;59.70
148;DHT22;142;50.652;12.216;2022-10-20T09:13:19;10.40;58.80
148;DHT22;142;50.652;12.216;2022-10-20T09:15:49;10.50;57.90
148;DHT22;142;50.652;12.216;2022-10-20T09:18:18;10.60;57.70
148;DHT22;142;50.652;12.216;2022-10-20T09:20:51;10.80;57.50
148;DHT22;142;50.652;12.216;2022-10-20T09:23:33;10.90;56.70
148;DHT22;142;50.652;12.216;2022-10-20T09:26:01;11.10;56.20
148;DHT22;142;50.652;12.216;2022-10-20T09:28:28;11.30;55.60
148;DHT22;142;50.652;12.216;2022-10-20T09:30:56;11.40;55.00
148;DHT22;142;50.652;12.216;2022-10-20T09:33:33;11.50;54.50
148;DHT22;142;50.652;12.216;2022-10-20T09:36:04;11.60;53.70
148;DHT22;142;50.652;12.216;2022-10-20T09:38:33;11.70;53.70
148;DHT22;142;50.652;12.216;2022-10-20T09:41:13;11.80;53.30
148;DHT22;142;50.652;12.216;2022-10-20T09:43:48;11.80;53.10
148;DHT22;142;50.652;12.216;2022-10-20T09:46:21;11.90;52.50
148;DHT22;142;50.652;12.216;2022-10-20T09:48:50;11.90;51.90
148;DHT22;142;50.652;12.216;2022-10-20T09:51:20;12.00;51.50
148;DHT22;142;50.652;12.216;2022-10-20T09:53:51;12.00;51.30
148;DHT22;142;50.652;12.216;2022-10-20T09:56:27;12.10;51.30
148;DHT22;142;50.652;12.216;2022-10-20T09:58:55;12.20;51.20
148;DHT22;142;50.652;12.216;2022-10-20T10:01:23;12.30;51.00
148;DHT22;142;50.652;12.216;2022-10-20T10:03:53;12.30;50.50
148;DHT22;142;50.652;12.216;2022-10-20T10:06:40;12.50;50.60
148;DHT22;142;50.652;12.216;2022-10-20T10:09:26;12.50;50.40
148;DHT22;142;50.652;12.216;2022-10-20T10:12:00;12.70;50.20
148;DHT22;142;50.652;12.216;2022-10-20T10:14:29;12.80;50.00
148;DHT22;142;50.652;12.216;2022-10-20T10:16:57;12.90;50.00
148;DHT22;142;50.652;12.216;2022-10-20T10:19:29;13.00;49.80
148;DHT22;142;50.652;12.216;2022-10-20T10:21:58;13.10;49.60
148;DHT22;142;50.652;12.216;2022-10-20T10:24:37;13.10;49.40
148;DHT22;142;50.652;12.216;2022-10-20T10:27:09;13.20;49.40
148;DHT22;142;50.652;12.216;2022-10-20T10:29:44;13.30;49.20
148;DHT22;142;50.652;12.216;2022-10-20T10:32:14;13.50;49.10
148;DHT22;142;50.652;12.216;2022-10-20T10:34:57;13.60;48.90
148;DHT22;142;50.652;12.216;2022-10-20T10:37:27;13.60;48.50
148;DHT22;142;50.652;12.216;2022-10-20T10:39:55;13.80;48.20
148;DHT22;142;50.652;12.216;2022-10-20T10:42:36;13.90;53.70
148;DHT22;142;50.652;12.216;2022-10-20T10:45:16;13.90;60.60
148;DHT22;142;50.652;12.216;2022-10-20T10:48:08;14.00;62.60
148;DHT22;142;50.652;12.216;2022-10-20T10:50:45;14.10;84.10
148;DHT22;142;50.652;12.216;2022-10-20T10:53:23;14.30;84.30
148;DHT22;142;50.652;12.216;2022-10-20T10:56:01;14.50;83.60
148;DHT22;142;50.652;12.216;2022-10-20T10:58:48;14.70;82.30
148;DHT22;142;50.652;12.216;2022-10-20T11:01:35;14.90;82.30
148;DHT22;142;50.652;12.216;2022-10-20T11:04:34;15.00;82.90
148;DHT22;142;50.652;12.216;2022-10-20T11:07:09;15.00;82.00
148;DHT22;142;50.652;12.216;2022-10-20T11:09:42;15.20;81.30
148;DHT22;142;50.652;12.216;2022-10-20T11:12:35;15.30;81.60
148;DHT22;142;50.652;12.216;2022-10-20T11:15:17;15.40;81.30
148;DHT22;142;50.652;12.216;2022-10-20T11:17:53;15.40;81.40
148;DHT22;142;50.652;12.216;2022-10-20T11:20:34;15.50;80.90
148;DHT22;142;50.652;12.216;2022-10-20T11:23:22;15.60;79.90
148;DHT22;142;50.652;12.216;2022-10-20T11:25:57;15.60;78.70
148;DHT22;142;50.652;12.216;2022-10-20T11:28:30;15.70;78.70
148;DHT22;142;50.652;12.216;2022-10-20T11:31:00;15.70;79.40
148;DHT22;142;50.652;12.216;2022-10-20T11:33:35;15.70;79.10
148;DHT22;142;50.652;12.216;2022-10-20T11:36:09;15.70;79.50
148;DHT22;142;50.652;12.216;2022-10-20T11:38:42;15.70;80.30
148;DHT22;142;50.652;12.216;2022-10-20T11:41:14;15.80;79.80
148;DHT22;142;50.652;12.216;2022-10-20T11:43:49;15.80;79.80
148;DHT22;142;50.652;12.216;2022-10-20T11:46:21;15.90;78.90
148;DHT22;142;50.652;12.216;2022-10-20T11:48:52;15.90;78.80
148;DHT22;142;50.652;12.216;2022-10-20T11:51:42;16.00;78.80
148;DHT22;142;50.652;12.216;2022-10-20T11:54:36;16.10;78.60
148;DHT22;142;50.652;12.216;2022-10-20T11:57:13;16.20;78.10
148;DHT22;142;50.652;12.216;2022-10-20T12:06:04;16.30;76.80
148;DHT22;142;50.652;12.216;2022-10-20T12:11:36;16.40;76.40
148;DHT22;142;50.652;12.216;2022-10-20T12:14:16;16.40;74.60
148;DHT22;142;50.652;12.216;2022-10-20T12:17:04;16.40;74.40
148;DHT22;142;50.652;12.216;2022-10-20T12:19:37;16.40;74.90
148;DHT22;142;50.652;12.216;2022-10-20T12:22:05;16.40;74.40
148;DHT22;142;50.652;12.216;2022-10-20T12:24:36;16.40;75.10
148;DHT22;142;50.652;12.216;2022-10-20T12:27:26;16.30;75.40
148;DHT22;142;50.652;12.216;2022-10-20T12:29:56;16.30;75.70
148;DHT22;142;50.652;12.216;2022-10-20T12:33:07;16.20;76.40
148;DHT22;142;50.652;12.216;2022-10-20T12:35:56;16.10;76.10
148;DHT22;142;50.652;12.216;2022-10-20T12:38:24;16.00;75.40
148;DHT22;142;50.652;12.216;2022-10-20T12:40:54;15.90;76.80
148;DHT22;142;50.652;12.216;2022-10-20T12:43:31;15.80;76.60
148;DHT22;142;50.652;12.216;2022-10-20T12:46:07;15.80;76.80
148;DHT22;142;50.652;12.216;2022-10-20T12:48:40;15.90;77.00
148;DHT22;142;50.652;12.216;2022-10-20T12:51:18;16.00;76.50
148;DHT22;142;50.652;12.216;2022-10-20T12:53:52;16.00;76.00
148;DHT22;142;50.652;12.216;2022-10-20T12:56:21;16.10;76.40
148;DHT22;142;50.652;12.216;2022-10-20T12:59:21;16.00;76.60
148;DHT22;142;50.652;12.216;2022-10-20T13:05:43;16.10;77.00
148;DHT22;142;50.652;12.216;2022-10-20T13:08:21;16.10;77.60
148;DHT22;142;50.652;12.216;2022-10-20T13:10:48;16.10;77.10
148;DHT22;142;50.652;12.216;2022-10-20T13:13:53;16.10;77.50
148;DHT22;142;50.652;12.216;2022-10-20T13:16:24;16.10;76.90
148;DHT22;142;50.652;12.216;2022-10-20T13:18:56;16.10;76.90
148;DHT22;142;50.652;12.216;2022-10-20T13:21:29;16.10;76.80
148;DHT22;142;50.652;12.216;2022-10-20T13:24:12;16.10;77.30
148;DHT22;142;50.652;12.216;2022-10-20T13:26:49;16.10;80.00
148;DHT22;142;50.652;12.216;2022-10-20T13:29:21;16.00;80.10
148;DHT22;142;50.652;12.216;2022-10-20T13:32:04;16.00;78.80
148;DHT22;142;50.652;12.216;2022-10-20T13:34:40;15.90;79.50
148;DHT22;142;50.652;12.216;2022-10-20T13:40:18;15.90;80.70
148;DHT22;142;50.652;12.216;2022-10-20T13:42:57;16.00;79.20
148;DHT22;142;50.652;12.216;2022-10-20T13:45:32;16.00;77.40
148;DHT22;142;50.652;12.216;2022-10-20T13:48:15;16.00;78.00
148;DHT22;142;50.652;12.216;2022-10-20T13:50:52;15.90;79.70
148;DHT22;142;50.652;12.216;2022-10-20T13:53:23;15.90;77.90
148;DHT22;142;50.652;12.216;2022-10-20T13:55:58;15.90;77.60
148;DHT22;142;50.652;12.216;2022-10-20T13:58:25;16.00;77.40
148;DHT22;142;50.652;12.216;2022-10-20T14:00:59;16.00;77.50
148;DHT22;142;50.652;12.216;2022-10-20T14:03:29;16.00;78.10
148;DHT22;142;50.652;12.216;2022-10-20T14:05:56;15.90;77.50
148;DHT22;142;50.652;12.216;2022-10-20T14:08:24;15.90;77.80
148;DHT22;142;50.652;12.216;2022-10-20T14:10:54;15.80;78.50
148;DHT22;142;50.652;12.216;2022-10-20T14:13:24;15.80;78.80
148;DHT22;142;50.652;12.216;2022-10-20T14:15:54;15.70;78.50
148;DHT22;142;50.652;12.216;2022-10-20T14:18:24;15.70;79.20
148;DHT22;142;50.652;12.216;2022-10-20T14:21:01;15.60;79.00
148;DHT22;142;50.652;12.216;2022-10-20T14:23:32;15.60;79.40
148;DHT22;142;50.652;12.216;2022-10-20T14:26:01;15.50;79.50
148;DHT22;142;50.652;12.216;2022-10-20T14:28:30;15.50;80.00
148;DHT22;142;50.652;12.216;2022-10-20T14:30:59;15.40;81.00
148;DHT22;142;50.652;12.216;2022-10-20T14:33:27;15.30;81.30
148;DHT22;142;50.652;12.216;2022-10-20T14:35:58;15.30;81.30
148;DHT22;142;50.652;12.216;2022-10-20T14:38:32;15.20;81.80
148;DHT22;142;50.652;12.216;2022-10-20T14:41:00;15.10;82.20
148;DHT22;142;50.652;12.216;2022-10-20T14:43:34;15.10;82.90
148;DHT22;142;50.652;12.216;2022-10-20T14:46:04;15.00;83.00
148;DHT22;142;50.652;12.216;2022-10-20T14:48:36;15.00;83.40
148;DHT22;142;50.652;12.216;2022-10-20T14:51:29;14.90;84.00
148;DHT22;142;50.652;12.216;2022-10-20T14:54:13;14.90;84.50
148;DHT22;142;50.652;12.216;2022-10-20T14:56:43;14.90;84.60
148;DHT22;142;50.652;12.216;2022-10-20T14:59:13;14.90;84.60
148;DHT22;142;50.652;12.216;2022-10-20T15:01:55;14.80;85.00
148;DHT22;142;50.652;12.216;2022-10-20T15:04:24;14.70;85.50
148;DHT22;142;50.652;12.216;2022-10-20T15:07:03;14.80;85.70
148;DHT22;142;50.652;12.216;2022-10-20T15:09:33;14.80;85.60
148;DHT22;142;50.652;12.216;2022-10-20T15:12:05;14.70;85.90
148;DHT22;142;50.652;12.216;2022-10-20T15:14:32;14.60;86.50
148;DHT22;142;50.652;12.216;2022-10-20T15:17:00;14.60;86.50
148;DHT22;142;50.652;12.216;2022-10-20T15:19:36;14.60;86.60
148;DHT22;142;50.652;12.216;2022-10-20T15:22:12;14.50;87.00
148;DHT22;142;50.652;12.216;2022-10-20T15:24:39;14.40;87.30
148;DHT22;142;50.652;12.216;2022-10-20T15:27:13;14.30;87.60
148;DHT22;142;50.652;12.216;2022-10-20T15:29:46;14.20;88.00
148;DHT22;142;50.652;12.216;2022-10-20T15:32:14;14.10;88.30
148;DHT22;142;50.652;12.216;2022-10-20T15:34:42;14.10;88.40
148;DHT22;142;50.652;12.216;2022-10-20T15:37:09;14.00;88.50
148;DHT22;142;50.652;12.216;2022-10-20T15:39:38;14.00;88.80
148;DHT22;142;50.652;12.216;2022-10-20T15:42:06;14.00;88.90
148;DHT22;142;50.652;12.216;2022-10-20T15:44:35;13.90;89.10
148;DHT22;142;50.652;12.216;2022-10-20T15:47:02;13.90;89.00
148;DHT22;142;50.652;12.216;2022-10-20T15:49:29;13.80;89.10
148;DHT22;142;50.652;12.216;2022-10-20T15:51:57;13.70;89.10
148;DHT22;142;50.652;12.216;2022-10-20T15:54:24;13.70;89.10
148;DHT22;142;50.652;12.216;2022-10-20T15:56:53;13.70;89.10
148;DHT22;142;50.652;12.216;2022-10-20T15:59:20;13.60;89.00
148;DHT22;142;50.652;12.216;2022-10-20T16:01:46;13.60;89.00
148;DHT22;142;50.652;12.216;2022-10-20T16:04:16;13.50;89.00
148;DHT22;142;50.652;12.216;2022-10-20T16:06:43;13.50;89.10
148;DHT22;142;50.652;12.216;2022-10-20T16:09:11;13.40;89.10
148;DHT22;142;50.652;12.216;2022-10-20T16:11:38;13.40;88.90
148;DHT22;142;50.652;12.216;2022-10-20T16:14:07;13.30;88.90
148;DHT22;142;50.652;12.216;2022-10-20T16:16:34;13.30;88.70
148;DHT22;142;50.652;12.216;2022-10-20T16:19:01;13.30;88.50
148;DHT22;142;50.652;12.216;2022-10-20T16:21:29;13.10;88.20
148;DHT22;142;50.652;12.216;2022-10-20T16:23:56;13.10;87.90
148;DHT22;142;50.652;12.216;2022-10-20T16:26:23;13.00;87.20
148;DHT22;142;50.652;12.216;2022-10-20T16:28:50;13.00;86.60
148;DHT22;142;50.652;12.216;2022-10-20T16:31:18;12.90;86.00
148;DHT22;142;50.652;12.216;2022-10-20T16:33:45;12.80;85.30
148;DHT22;142;50.652;12.216;2022-10-20T16:36:14;12.70;85.20
148;DHT22;142;50.652;12.216;2022-10-20T16:38:41;12.60;84.40
148;DHT22;142;50.652;12.216;2022-10-20T16:41:11;12.60;84.10
148;DHT22;142;50.652;12.216;2022-10-20T16:43:41;12.70;84.20
148;DHT22;142;50.652;12.216;2022-10-20T16:46:09;12.70;84.10
148;DHT22;142;50.652;12.216;2022-10-20T16:48:39;12.60;82.80
148;DHT22;142;50.652;12.216;2022-10-20T16:51:07;12.60;82.90
148;DHT22;142;50.652;12.216;2022-10-20T16:53:35;12.60;83.00
148;DHT22;142;50.652;12.216;2022-10-20T16:56:03;12.60;83.40
148;DHT22;142;50.652;12.216;2022-10-20T16:58:30;12.70;83.80
148;DHT22;142;50.652;12.216;2022-10-20T17:01:00;12.70;84.30
148;DHT22;142;50.652;12.216;2022-10-20T17:03:28;12.70;84.00
148;DHT22;142;50.652;12.216;2022-10-20T17:05:59;12.60;83.70
148;DHT22;142;50.652;12.216;2022-10-20T17:08:27;12.60;82.90
148;DHT22;142;50.652;12.216;2022-10-20T17:10:58;12.60;82.10